sensor_id;sensor_type;location;lat;lon;timestamp;P1;durP1;ratioP1;P2;durP2;ratioP2
50309;SDS011;36207;51.850;21.698;2023-05-19T00:01:41;6.20;;;3.60;;
50309;SDS011;36207;51.850;21.698;2023-05-19T00:04:08;6.50;;;3.50;;
50309;SDS011;36207;51.850;21.698;2023-05-19T00:06:37;5.00;;;3.20;;
50309;SDS011;36207;51.850;21.698;2023-05-19T00:09:04;6.90;;;3.30;;
50309;SDS011;36207;51.850;21.698;2023-05-19T00:11:35;4.50;;;2.90;;
50309;SDS011;36207;51.850;21.698;2023-05-19T00:14:03;4.90;;;3.10;;
50309;SDS011;36207;51.850;21.698;2023-05-19T00:16:31;7.50;;;3.10;;
50309;SDS011;36207;51.850;21.698;2023-05-19T00:18:58;5.40;;;3.10;;
50309;SDS011;36207;51.850;21.698;2023-05-19T00:21:25;6.10;;;3.30;;
50309;SDS011;36207;51.850;21.698;2023-05-19T00:23:51;5.50;;;3.00;;
50309;SDS011;36207;51.850;21.698;2023-05-19T00:26:17;3.20;;;2.50;;
50309;SDS011;36207;51.850;21.698;2023-05-19T00:28:43;5.80;;;2.90;;
50309;SDS011;36207;51.850;21.698;2023-05-19T00:31:09;4.90;;;2.70;;
50309;SDS011;36207;51.850;21.698;2023-05-19T00:33:35;5.40;;;3.10;;
50309;SDS011;36207;51.850;21.698;2023-05-19T00:36:02;6.10;;;3.20;;
50309;SDS011;36207;51.850;21.698;2023-05-19T00:38:32;7.10;;;2.90;;
50309;SDS011;36207;51.850;21.698;2023-05-19T00:40:59;10.70;;;2.90;;
50309;SDS011;36207;51.850;21.698;2023-05-19T00:43:26;7.20;;;2.80;;
50309;SDS011;36207;51.850;21.698;2023-05-19T00:45:54;5.50;;;2.70;;
50309;SDS011;36207;51.850;21.698;2023-05-19T00:48:21;4.20;;;2.70;;
50309;SDS011;36207;51.850;21.698;2023-05-19T00:50:48;5.10;;;2.70;;
50309;SDS011;36207;51.850;21.698;2023-05-19T00:53:16;5.50;;;2.50;;
50309;SDS011;36207;51.850;21.698;2023-05-19T00:55:43;3.40;;;2.50;;
50309;SDS011;36207;51.850;21.698;2023-05-19T00:58:11;6.00;;;2.60;;
50309;SDS011;36207;51.850;21.698;2023-05-19T01:00:38;6.30;;;2.60;;
50309;SDS011;36207;51.850;21.698;2023-05-19T01:03:05;4.10;;;2.60;;
50309;SDS011;36207;51.850;21.698;2023-05-19T01:05:38;5.20;;;2.60;;
50309;SDS011;36207;51.850;21.698;2023-05-19T01:08:12;5.30;;;2.60;;
50309;SDS011;36207;51.850;21.698;2023-05-19T01:10:38;4.80;;;2.70;;
50309;SDS011;36207;51.850;21.698;2023-05-19T01:13:04;3.30;;;2.30;;
50309;SDS011;36207;51.850;21.698;2023-05-19T01:18:41;3.70;;;2.40;;
50309;SDS011;36207;51.850;21.698;2023-05-19T01:32:04;3.40;;;2.40;;
50309;SDS011;36207;51.850;21.698;2023-05-19T01:34:32;3.50;;;2.30;;
50309;SDS011;36207;51.850;21.698;2023-05-19T01:37:03;5.20;;;2.40;;
50309;SDS011;36207;51.850;21.698;2023-05-19T01:39:30;3.90;;;2.30;;
50309;SDS011;36207;51.850;21.698;2023-05-19T01:41:58;3.00;;;2.30;;
50309;SDS011;36207;51.850;21.698;2023-05-19T01:44:26;3.10;;;2.00;;
50309;SDS011;36207;51.850;21.698;2023-05-19T01:46:53;3.60;;;2.10;;
50309;SDS011;36207;51.850;21.698;2023-05-19T01:49:19;3.80;;;2.20;;
50309;SDS011;36207;51.850;21.698;2023-05-19T01:51:45;4.60;;;2.40;;
50309;SDS011;36207;51.850;21.698;2023-05-19T01:54:11;6.50;;;2.50;;
50309;SDS011;36207;51.850;21.698;2023-05-19T01:56:42;4.40;;;2.60;;
50309;SDS011;36207;51.850;21.698;2023-05-19T01:59:26;4.70;;;2.60;;
50309;SDS011;36207;51.850;21.698;2023-05-19T02:02:04;3.00;;;2.20;;
50309;SDS011;36207;51.850;21.698;2023-05-19T02:04:40;4.20;;;2.30;;
50309;SDS011;36207;51.850;21.698;2023-05-19T02:17:54;3.50;;;2.20;;
50309;SDS011;36207;51.850;21.698;2023-05-19T02:20:22;4.70;;;2.40;;
50309;SDS011;36207;51.850;21.698;2023-05-19T02:22:48;2.70;;;1.90;;
50309;SDS011;36207;51.850;21.698;2023-05-19T02:25:15;2.90;;;1.90;;
50309;SDS011;36207;51.850;21.698;2023-05-19T02:27:41;4.70;;;2.00;;
50309;SDS011;36207;51.850;21.698;2023-05-19T02:30:07;6.40;;;2.10;;
50309;SDS011;36207;51.850;21.698;2023-05-19T02:32:34;5.50;;;2.10;;
50309;SDS011;36207;51.850;21.698;2023-05-19T02:35:01;4.80;;;2.50;;
50309;SDS011;36207;51.850;21.698;2023-05-19T02:37:28;4.10;;;2.10;;
50309;SDS011;36207;51.850;21.698;2023-05-19T02:39:55;5.20;;;2.00;;
50309;SDS011;36207;51.850;21.698;2023-05-19T02:42:21;5.00;;;1.90;;
50309;SDS011;36207;51.850;21.698;2023-05-19T02:44:47;5.60;;;2.60;;
50309;SDS011;36207;51.850;21.698;2023-05-19T02:47:13;3.90;;;2.00;;
50309;SDS011;36207;51.850;21.698;2023-05-19T02:49:39;4.00;;;2.10;;
50309;SDS011;36207;51.850;21.698;2023-05-19T02:52:05;5.90;;;2.30;;
50309;SDS011;36207;51.850;21.698;2023-05-19T02:54:32;4.50;;;2.40;;
50309;SDS011;36207;51.850;21.698;2023-05-19T02:56:59;4.30;;;2.10;;
50309;SDS011;36207;51.850;21.698;2023-05-19T02:59:25;3.80;;;2.30;;
50309;SDS011;36207;51.850;21.698;2023-05-19T03:01:55;6.80;;;2.20;;
50309;SDS011;36207;51.850;21.698;2023-05-19T03:04:24;3.20;;;2.00;;
50309;SDS011;36207;51.850;21.698;2023-05-19T03:06:50;3.10;;;2.20;;
50309;SDS011;36207;51.850;21.698;2023-05-19T03:09:16;4.10;;;2.10;;
50309;SDS011;36207;51.850;21.698;2023-05-19T03:11:42;6.80;;;2.40;;
50309;SDS011;36207;51.850;21.698;2023-05-19T03:14:08;2.70;;;2.00;;
50309;SDS011;36207;51.850;21.698;2023-05-19T03:16:34;4.10;;;2.00;;
50309;SDS011;36207;51.850;21.698;2023-05-19T03:19:00;3.20;;;2.30;;
50309;SDS011;36207;51.850;21.698;2023-05-19T03:21:26;3.80;;;2.00;;
50309;SDS011;36207;51.850;21.698;2023-05-19T03:23:52;3.30;;;2.30;;
50309;SDS011;36207;51.850;21.698;2023-05-19T03:26:19;5.50;;;2.50;;
50309;SDS011;36207;51.850;21.698;2023-05-19T03:28:45;4.00;;;2.10;;
50309;SDS011;36207;51.850;21.698;2023-05-19T03:31:11;2.30;;;1.80;;
50309;SDS011;36207;51.850;21.698;2023-05-19T03:33:38;3.50;;;2.20;;
50309;SDS011;36207;51.850;21.698;2023-05-19T03:36:04;4.40;;;2.40;;
50309;SDS011;36207;51.850;21.698;2023-05-19T03:38:30;3.40;;;2.00;;
50309;SDS011;36207;51.850;21.698;2023-05-19T03:40:57;2.90;;;2.30;;
50309;SDS011;36207;51.850;21.698;2023-05-19T03:43:23;5.10;;;2.50;;
50309;SDS011;36207;51.850;21.698;2023-05-19T03:45:48;5.30;;;2.00;;
50309;SDS011;36207;51.850;21.698;2023-05-19T03:48:14;4.60;;;2.20;;
50309;SDS011;36207;51.850;21.698;2023-05-19T03:50:40;5.10;;;2.10;;
50309;SDS011;36207;51.850;21.698;2023-05-19T03:53:08;5.20;;;2.40;;
50309;SDS011;36207;51.850;21.698;2023-05-19T03:55:35;4.60;;;2.90;;
50309;SDS011;36207;51.850;21.698;2023-05-19T03:58:02;2.90;;;2.00;;
50309;SDS011;36207;51.850;21.698;2023-05-19T04:00:28;2.50;;;1.90;;
50309;SDS011;36207;51.850;21.698;2023-05-19T04:02:54;4.50;;;2.30;;
50309;SDS011;36207;51.850;21.698;2023-05-19T04:05:20;4.60;;;2.10;;
50309;SDS011;36207;51.850;21.698;2023-05-19T04:07:45;4.10;;;2.10;;
50309;SDS011;36207;51.850;21.698;2023-05-19T04:10:11;2.50;;;2.10;;
50309;SDS011;36207;51.850;21.698;2023-05-19T04:12:38;2.40;;;2.10;;
50309;SDS011;36207;51.850;21.698;2023-05-19T04:15:04;6.80;;;2.20;;
50309;SDS011;36207;51.850;21.698;2023-05-19T04:17:31;3.40;;;2.20;;
50309;SDS011;36207;51.850;21.698;2023-05-19T04:19:57;3.90;;;2.10;;
50309;SDS011;36207;51.850;21.698;2023-05-19T04:22:23;5.50;;;2.40;;
50309;SDS011;36207;51.850;21.698;2023-05-19T04:24:48;4.40;;;2.20;;
50309;SDS011;36207;51.850;21.698;2023-05-19T04:27:16;3.70;;;2.40;;
50309;SDS011;36207;51.850;21.698;2023-05-19T04:29:42;4.10;;;2.30;;
50309;SDS011;36207;51.850;21.698;2023-05-19T04:32:12;3.90;;;2.30;;
50309;SDS011;36207;51.850;21.698;2023-05-19T04:34:42;5.30;;;2.80;;
50309;SDS011;36207;51.850;21.698;2023-05-19T04:37:13;5.80;;;2.40;;
50309;SDS011;36207;51.850;21.698;2023-05-19T04:39:42;4.40;;;2.60;;
50309;SDS011;36207;51.850;21.698;2023-05-19T04:42:09;3.80;;;2.50;;
50309;SDS011;36207;51.850;21.698;2023-05-19T04:44:39;2.70;;;2.20;;
50309;SDS011;36207;51.850;21.698;2023-05-19T04:47:05;4.50;;;2.40;;
50309;SDS011;36207;51.850;21.698;2023-05-19T04:49:33;4.30;;;2.80;;
50309;SDS011;36207;51.850;21.698;2023-05-19T04:52:04;5.50;;;2.70;;
50309;SDS011;36207;51.850;21.698;2023-05-19T04:54:33;4.40;;;2.30;;
50309;SDS011;36207;51.850;21.698;2023-05-19T04:57:00;3.40;;;2.40;;
50309;SDS011;36207;51.850;21.698;2023-05-19T04:59:25;6.10;;;2.60;;
50309;SDS011;36207;51.850;21.698;2023-05-19T05:01:51;4.40;;;2.70;;
50309;SDS011;36207;51.850;21.698;2023-05-19T05:04:18;4.70;;;2.50;;
50309;SDS011;36207;51.850;21.698;2023-05-19T05:06:44;4.40;;;2.60;;
50309;SDS011;36207;51.850;21.698;2023-05-19T05:09:13;4.50;;;2.70;;
50309;SDS011;36207;51.850;21.698;2023-05-19T05:11:40;3.60;;;2.40;;
50309;SDS011;36207;51.850;21.698;2023-05-19T05:14:07;3.80;;;2.50;;
50309;SDS011;36207;51.850;21.698;2023-05-19T05:16:33;3.70;;;2.50;;
50309;SDS011;36207;51.850;21.698;2023-05-19T05:19:00;3.70;;;2.30;;
50309;SDS011;36207;51.850;21.698;2023-05-19T05:21:27;4.40;;;2.50;;
50309;SDS011;36207;51.850;21.698;2023-05-19T05:23:54;5.60;;;2.70;;
50309;SDS011;36207;51.850;21.698;2023-05-19T05:26:20;5.00;;;2.70;;
50309;SDS011;36207;51.850;21.698;2023-05-19T05:28:49;4.50;;;2.80;;
50309;SDS011;36207;51.850;21.698;2023-05-19T05:31:15;6.30;;;2.70;;
50309;SDS011;36207;51.850;21.698;2023-05-19T05:33:41;5.80;;;2.90;;
50309;SDS011;36207;51.850;21.698;2023-05-19T05:36:08;6.90;;;2.70;;
50309;SDS011;36207;51.850;21.698;2023-05-19T05:38:34;4.20;;;2.40;;
50309;SDS011;36207;51.850;21.698;2023-05-19T05:41:00;5.50;;;2.90;;
50309;SDS011;36207;51.850;21.698;2023-05-19T05:43:28;6.70;;;3.10;;
50309;SDS011;36207;51.850;21.698;2023-05-19T05:45:55;6.30;;;2.90;;
50309;SDS011;36207;51.850;21.698;2023-05-19T05:48:21;7.90;;;2.90;;
50309;SDS011;36207;51.850;21.698;2023-05-19T05:50:48;5.50;;;2.90;;
50309;SDS011;36207;51.850;21.698;2023-05-19T05:53:18;9.90;;;3.30;;
50309;SDS011;36207;51.850;21.698;2023-05-19T05:55:46;6.20;;;3.10;;
50309;SDS011;36207;51.850;21.698;2023-05-19T05:58:12;8.20;;;3.20;;
50309;SDS011;36207;51.850;21.698;2023-05-19T06:00:40;6.70;;;3.50;;
50309;SDS011;36207;51.850;21.698;2023-05-19T06:03:13;7.80;;;3.20;;
50309;SDS011;36207;51.850;21.698;2023-05-19T06:05:39;10.70;;;3.80;;
50309;SDS011;36207;51.850;21.698;2023-05-19T06:08:05;9.30;;;3.60;;
50309;SDS011;36207;51.850;21.698;2023-05-19T06:10:31;8.90;;;3.70;;
50309;SDS011;36207;51.850;21.698;2023-05-19T06:12:57;8.60;;;3.70;;
50309;SDS011;36207;51.850;21.698;2023-05-19T06:15:23;9.10;;;4.00;;
50309;SDS011;36207;51.850;21.698;2023-05-19T06:17:49;10.90;;;3.90;;
50309;SDS011;36207;51.850;21.698;2023-05-19T06:20:16;10.30;;;4.20;;
50309;SDS011;36207;51.850;21.698;2023-05-19T06:22:43;9.60;;;3.80;;
50309;SDS011;36207;51.850;21.698;2023-05-19T06:25:09;8.60;;;3.90;;
50309;SDS011;36207;51.850;21.698;2023-05-19T06:27:34;9.70;;;3.80;;
50309;SDS011;36207;51.850;21.698;2023-05-19T06:30:01;9.40;;;3.70;;
50309;SDS011;36207;51.850;21.698;2023-05-19T06:32:27;10.00;;;4.10;;
50309;SDS011;36207;51.850;21.698;2023-05-19T06:34:54;10.00;;;4.30;;
50309;SDS011;36207;51.850;21.698;2023-05-19T06:37:21;10.40;;;4.70;;
50309;SDS011;36207;51.850;21.698;2023-05-19T06:39:51;11.00;;;4.40;;
50309;SDS011;36207;51.850;21.698;2023-05-19T06:42:18;13.70;;;4.70;;
50309;SDS011;36207;51.850;21.698;2023-05-19T06:44:48;13.40;;;4.60;;
50309;SDS011;36207;51.850;21.698;2023-05-19T06:47:15;13.70;;;4.90;;
50309;SDS011;36207;51.850;21.698;2023-05-19T06:49:41;14.30;;;5.10;;
50309;SDS011;36207;51.850;21.698;2023-05-19T06:52:08;13.20;;;5.30;;
50309;SDS011;36207;51.850;21.698;2023-05-19T06:54:34;13.40;;;5.30;;
50309;SDS011;36207;51.850;21.698;2023-05-19T06:57:00;14.70;;;5.10;;
50309;SDS011;36207;51.850;21.698;2023-05-19T06:59:26;13.70;;;5.40;;
50309;SDS011;36207;51.850;21.698;2023-05-19T07:01:52;16.20;;;5.20;;
50309;SDS011;36207;51.850;21.698;2023-05-19T07:04:17;16.60;;;5.50;;
50309;SDS011;36207;51.850;21.698;2023-05-19T07:06:43;15.30;;;5.30;;
50309;SDS011;36207;51.850;21.698;2023-05-19T07:09:09;13.40;;;5.50;;
50309;SDS011;36207;51.850;21.698;2023-05-19T07:11:35;15.10;;;5.20;;
50309;SDS011;36207;51.850;21.698;2023-05-19T07:14:01;18.50;;;5.70;;
50309;SDS011;36207;51.850;21.698;2023-05-19T07:16:27;14.30;;;5.20;;
50309;SDS011;36207;51.850;21.698;2023-05-19T07:18:52;11.00;;;5.00;;
50309;SDS011;36207;51.850;21.698;2023-05-19T07:21:18;11.90;;;4.60;;
50309;SDS011;36207;51.850;21.698;2023-05-19T07:23:44;16.00;;;5.40;;
50309;SDS011;36207;51.850;21.698;2023-05-19T07:26:10;12.80;;;5.10;;
50309;SDS011;36207;51.850;21.698;2023-05-19T07:28:36;13.70;;;5.20;;
50309;SDS011;36207;51.850;21.698;2023-05-19T07:31:02;15.70;;;5.10;;
50309;SDS011;36207;51.850;21.698;2023-05-19T07:33:28;13.40;;;4.90;;
50309;SDS011;36207;51.850;21.698;2023-05-19T07:35:54;11.60;;;5.00;;
50309;SDS011;36207;51.850;21.698;2023-05-19T07:38:19;11.30;;;4.90;;
50309;SDS011;36207;51.850;21.698;2023-05-19T07:40:46;18.90;;;5.30;;
50309;SDS011;36207;51.850;21.698;2023-05-19T07:43:12;11.20;;;4.50;;
50309;SDS011;36207;51.850;21.698;2023-05-19T07:45:38;12.40;;;4.60;;
50309;SDS011;36207;51.850;21.698;2023-05-19T07:48:04;10.40;;;4.70;;
50309;SDS011;36207;51.850;21.698;2023-05-19T07:50:30;11.70;;;4.70;;
50309;SDS011;36207;51.850;21.698;2023-05-19T07:52:56;12.00;;;4.80;;
50309;SDS011;36207;51.850;21.698;2023-05-19T07:55:22;14.60;;;4.80;;
50309;SDS011;36207;51.850;21.698;2023-05-19T07:57:48;10.40;;;5.00;;
50309;SDS011;36207;51.850;21.698;2023-05-19T08:00:15;10.70;;;4.80;;
50309;SDS011;36207;51.850;21.698;2023-05-19T08:02:42;9.10;;;4.20;;
50309;SDS011;36207;51.850;21.698;2023-05-19T08:05:09;9.40;;;4.70;;
50309;SDS011;36207;51.850;21.698;2023-05-19T08:07:36;13.60;;;5.00;;
50309;SDS011;36207;51.850;21.698;2023-05-19T08:10:02;11.90;;;4.80;;
50309;SDS011;36207;51.850;21.698;2023-05-19T08:12:28;12.50;;;5.20;;
50309;SDS011;36207;51.850;21.698;2023-05-19T08:14:54;11.60;;;4.90;;
50309;SDS011;36207;51.850;21.698;2023-05-19T08:17:20;11.10;;;4.80;;
50309;SDS011;36207;51.850;21.698;2023-05-19T08:19:46;11.00;;;5.00;;
50309;SDS011;36207;51.850;21.698;2023-05-19T08:22:12;11.30;;;4.70;;
50309;SDS011;36207;51.850;21.698;2023-05-19T08:24:38;9.70;;;4.90;;
50309;SDS011;36207;51.850;21.698;2023-05-19T08:27:07;9.80;;;5.00;;
50309;SDS011;36207;51.850;21.698;2023-05-19T08:29:32;10.30;;;4.90;;
50309;SDS011;36207;51.850;21.698;2023-05-19T08:31:58;9.20;;;4.60;;
50309;SDS011;36207;51.850;21.698;2023-05-19T08:34:26;10.80;;;5.00;;
50309;SDS011;36207;51.850;21.698;2023-05-19T08:36:52;9.80;;;4.60;;
50309;SDS011;36207;51.850;21.698;2023-05-19T08:39:18;11.00;;;5.40;;
50309;SDS011;36207;51.850;21.698;2023-05-19T08:41:48;10.40;;;5.00;;
50309;SDS011;36207;51.850;21.698;2023-05-19T08:44:14;12.50;;;5.30;;
50309;SDS011;36207;51.850;21.698;2023-05-19T08:46:40;10.10;;;4.90;;
50309;SDS011;36207;51.850;21.698;2023-05-19T08:49:12;10.70;;;5.50;;
50309;SDS011;36207;51.850;21.698;2023-05-19T08:54:15;14.50;;;5.10;;
50309;SDS011;36207;51.850;21.698;2023-05-19T08:56:43;9.50;;;5.00;;
50309;SDS011;36207;51.850;21.698;2023-05-19T08:59:12;14.90;;;5.70;;
50309;SDS011;36207;51.850;21.698;2023-05-19T09:01:43;7.80;;;4.80;;
50309;SDS011;36207;51.850;21.698;2023-05-19T09:04:10;11.20;;;5.40;;
50309;SDS011;36207;51.850;21.698;2023-05-19T09:06:37;10.60;;;5.20;;
50309;SDS011;36207;51.850;21.698;2023-05-19T09:09:05;10.60;;;5.10;;
50309;SDS011;36207;51.850;21.698;2023-05-19T09:11:32;11.10;;;5.40;;
50309;SDS011;36207;51.850;21.698;2023-05-19T09:14:00;11.60;;;5.40;;
50309;SDS011;36207;51.850;21.698;2023-05-19T09:16:26;10.90;;;5.30;;
50309;SDS011;36207;51.850;21.698;2023-05-19T09:18:54;10.80;;;5.40;;
50309;SDS011;36207;51.850;21.698;2023-05-19T09:21:27;11.00;;;5.80;;
50309;SDS011;36207;51.850;21.698;2023-05-19T09:23:57;10.60;;;5.50;;
50309;SDS011;36207;51.850;21.698;2023-05-19T09:26:34;11.60;;;5.20;;
50309;SDS011;36207;51.850;21.698;2023-05-19T09:29:09;11.70;;;4.90;;
50309;SDS011;36207;51.850;21.698;2023-05-19T09:31:47;11.60;;;5.70;;
50309;SDS011;36207;51.850;21.698;2023-05-19T09:34:18;11.70;;;5.70;;
50309;SDS011;36207;51.850;21.698;2023-05-19T09:36:46;11.30;;;5.60;;
50309;SDS011;36207;51.850;21.698;2023-05-19T09:39:17;11.60;;;5.70;;
50309;SDS011;36207;51.850;21.698;2023-05-19T09:41:44;11.20;;;5.60;;
50309;SDS011;36207;51.850;21.698;2023-05-19T09:44:14;11.20;;;5.50;;
50309;SDS011;36207;51.850;21.698;2023-05-19T09:46:53;11.10;;;5.70;;
50309;SDS011;36207;51.850;21.698;2023-05-19T09:49:24;12.80;;;6.00;;
50309;SDS011;36207;51.850;21.698;2023-05-19T09:54:21;12.50;;;6.10;;
50309;SDS011;36207;51.850;21.698;2023-05-19T09:57:06;14.60;;;6.10;;
50309;SDS011;36207;51.850;21.698;2023-05-19T09:59:33;11.30;;;5.60;;
50309;SDS011;36207;51.850;21.698;2023-05-19T10:01:59;12.40;;;5.70;;
50309;SDS011;36207;51.850;21.698;2023-05-19T10:04:26;11.60;;;5.50;;
50309;SDS011;36207;51.850;21.698;2023-05-19T10:06:54;10.00;;;5.80;;
50309;SDS011;36207;51.850;21.698;2023-05-19T10:09:24;13.40;;;6.00;;
50309;SDS011;36207;51.850;21.698;2023-05-19T10:11:52;14.90;;;6.30;;
50309;SDS011;36207;51.850;21.698;2023-05-19T10:14:26;11.70;;;6.50;;
50309;SDS011;36207;51.850;21.698;2023-05-19T10:16:55;13.30;;;6.20;;
50309;SDS011;36207;51.850;21.698;2023-05-19T10:19:26;11.80;;;6.30;;
50309;SDS011;36207;51.850;21.698;2023-05-19T10:21:53;11.50;;;6.20;;
50309;SDS011;36207;51.850;21.698;2023-05-19T10:24:20;14.30;;;6.00;;
50309;SDS011;36207;51.850;21.698;2023-05-19T10:27:03;11.40;;;6.30;;
50309;SDS011;36207;51.850;21.698;2023-05-19T10:29:41;11.90;;;6.30;;
50309;SDS011;36207;51.850;21.698;2023-05-19T10:32:13;11.30;;;6.00;;
50309;SDS011;36207;51.850;21.698;2023-05-19T10:39:46;11.00;;;6.10;;
50309;SDS011;36207;51.850;21.698;2023-05-19T10:42:17;11.60;;;5.60;;
50309;SDS011;36207;51.850;21.698;2023-05-19T10:47:35;11.30;;;5.70;;
50309;SDS011;36207;51.850;21.698;2023-05-19T10:50:00;11.10;;;6.10;;
50309;SDS011;36207;51.850;21.698;2023-05-19T10:52:26;13.90;;;6.10;;
50309;SDS011;36207;51.850;21.698;2023-05-19T10:54:55;11.80;;;5.90;;
50309;SDS011;36207;51.850;21.698;2023-05-19T10:57:25;11.00;;;5.90;;
50309;SDS011;36207;51.850;21.698;2023-05-19T10:59:54;11.10;;;5.70;;
50309;SDS011;36207;51.850;21.698;2023-05-19T11:02:40;10.00;;;5.60;;
50309;SDS011;36207;51.850;21.698;2023-05-19T11:05:09;11.40;;;6.10;;
50309;SDS011;36207;51.850;21.698;2023-05-19T11:07:42;10.20;;;5.80;;
50309;SDS011;36207;51.850;21.698;2023-05-19T11:10:22;11.50;;;6.20;;
50309;SDS011;36207;51.850;21.698;2023-05-19T11:12:49;10.90;;;6.20;;
50309;SDS011;36207;51.850;21.698;2023-05-19T11:15:15;11.30;;;6.30;;
50309;SDS011;36207;51.850;21.698;2023-05-19T11:17:43;8.90;;;5.70;;
50309;SDS011;36207;51.850;21.698;2023-05-19T11:20:25;11.60;;;5.40;;
50309;SDS011;36207;51.850;21.698;2023-05-19T11:23:00;14.70;;;6.40;;
50309;SDS011;36207;51.850;21.698;2023-05-19T11:25:42;11.40;;;6.50;;
50309;SDS011;36207;51.850;21.698;2023-05-19T11:28:10;12.10;;;6.40;;
50309;SDS011;36207;51.850;21.698;2023-05-19T11:30:43;10.60;;;6.20;;
50309;SDS011;36207;51.850;21.698;2023-05-19T11:33:10;10.10;;;5.90;;
50309;SDS011;36207;51.850;21.698;2023-05-19T11:35:38;12.00;;;6.30;;
50309;SDS011;36207;51.850;21.698;2023-05-19T11:38:05;9.70;;;5.70;;
50309;SDS011;36207;51.850;21.698;2023-05-19T11:40:31;12.50;;;5.80;;
50309;SDS011;36207;51.850;21.698;2023-05-19T11:42:57;10.80;;;6.30;;
50309;SDS011;36207;51.850;21.698;2023-05-19T11:45:24;9.80;;;5.60;;
50309;SDS011;36207;51.850;21.698;2023-05-19T11:47:51;16.00;;;5.80;;
50309;SDS011;36207;51.850;21.698;2023-05-19T11:50:21;11.20;;;5.60;;
50309;SDS011;36207;51.850;21.698;2023-05-19T11:52:47;9.80;;;5.70;;
50309;SDS011;36207;51.850;21.698;2023-05-19T11:55:16;14.20;;;6.00;;
50309;SDS011;36207;51.850;21.698;2023-05-19T11:57:52;11.30;;;5.80;;
50309;SDS011;36207;51.850;21.698;2023-05-19T12:00:25;11.50;;;5.70;;
50309;SDS011;36207;51.850;21.698;2023-05-19T12:02:51;13.50;;;6.00;;
50309;SDS011;36207;51.850;21.698;2023-05-19T12:05:21;11.70;;;6.10;;
50309;SDS011;36207;51.850;21.698;2023-05-19T12:07:49;12.90;;;5.90;;
50309;SDS011;36207;51.850;21.698;2023-05-19T12:10:21;13.30;;;6.30;;
50309;SDS011;36207;51.850;21.698;2023-05-19T12:12:52;11.70;;;6.10;;
50309;SDS011;36207;51.850;21.698;2023-05-19T12:15:22;12.70;;;5.80;;
50309;SDS011;36207;51.850;21.698;2023-05-19T12:17:49;11.20;;;5.70;;
50309;SDS011;36207;51.850;21.698;2023-05-19T12:20:17;13.00;;;5.90;;
50309;SDS011;36207;51.850;21.698;2023-05-19T12:22:44;9.20;;;6.10;;
50309;SDS011;36207;51.850;21.698;2023-05-19T12:25:12;9.30;;;5.50;;
50309;SDS011;36207;51.850;21.698;2023-05-19T12:27:41;9.40;;;5.70;;
50309;SDS011;36207;51.850;21.698;2023-05-19T12:30:08;11.00;;;6.20;;
50309;SDS011;36207;51.850;21.698;2023-05-19T12:32:35;10.70;;;5.90;;
50309;SDS011;36207;51.850;21.698;2023-05-19T12:35:02;13.20;;;6.10;;
50309;SDS011;36207;51.850;21.698;2023-05-19T12:37:32;10.40;;;5.90;;
50309;SDS011;36207;51.850;21.698;2023-05-19T12:40:00;11.90;;;6.00;;
50309;SDS011;36207;51.850;21.698;2023-05-19T12:42:28;14.00;;;6.10;;
50309;SDS011;36207;51.850;21.698;2023-05-19T12:44:56;10.90;;;6.10;;
50309;SDS011;36207;51.850;21.698;2023-05-19T12:47:33;11.00;;;5.90;;
50309;SDS011;36207;51.850;21.698;2023-05-19T12:50:04;10.00;;;6.10;;
50309;SDS011;36207;51.850;21.698;2023-05-19T12:52:34;12.60;;;5.90;;
50309;SDS011;36207;51.850;21.698;2023-05-19T12:55:06;9.80;;;6.00;;
50309;SDS011;36207;51.850;21.698;2023-05-19T12:57:39;9.60;;;6.10;;
50309;SDS011;36207;51.850;21.698;2023-05-19T13:00:13;11.20;;;5.90;;
50309;SDS011;36207;51.850;21.698;2023-05-19T13:05:22;11.60;;;6.30;;
50309;SDS011;36207;51.850;21.698;2023-05-19T13:08:07;13.20;;;6.40;;
50309;SDS011;36207;51.850;21.698;2023-05-19T13:10:36;12.00;;;6.00;;
50309;SDS011;36207;51.850;21.698;2023-05-19T13:13:03;12.40;;;6.50;;
50309;SDS011;36207;51.850;21.698;2023-05-19T13:15:30;12.40;;;6.70;;
50309;SDS011;36207;51.850;21.698;2023-05-19T13:18:01;10.90;;;6.30;;
50309;SDS011;36207;51.850;21.698;2023-05-19T13:20:28;13.20;;;6.60;;
50309;SDS011;36207;51.850;21.698;2023-05-19T13:22:54;13.40;;;6.50;;
50309;SDS011;36207;51.850;21.698;2023-05-19T13:25:21;13.40;;;6.10;;
50309;SDS011;36207;51.850;21.698;2023-05-19T13:27:47;11.80;;;6.50;;
50309;SDS011;36207;51.850;21.698;2023-05-19T13:30:14;12.60;;;6.30;;
50309;SDS011;36207;51.850;21.698;2023-05-19T13:32:40;12.40;;;6.50;;
50309;SDS011;36207;51.850;21.698;2023-05-19T13:35:07;12.80;;;6.20;;
50309;SDS011;36207;51.850;21.698;2023-05-19T13:37:35;11.90;;;6.20;;
50309;SDS011;36207;51.850;21.698;2023-05-19T13:40:01;12.80;;;6.30;;
50309;SDS011;36207;51.850;21.698;2023-05-19T13:42:28;11.50;;;6.30;;
50309;SDS011;36207;51.850;21.698;2023-05-19T13:44:54;10.40;;;6.30;;
50309;SDS011;36207;51.850;21.698;2023-05-19T13:47:24;15.00;;;6.30;;
50309;SDS011;36207;51.850;21.698;2023-05-19T13:49:51;10.80;;;6.10;;
50309;SDS011;36207;51.850;21.698;2023-05-19T13:52:19;11.30;;;6.50;;
50309;SDS011;36207;51.850;21.698;2023-05-19T13:54:50;14.50;;;6.20;;
50309;SDS011;36207;51.850;21.698;2023-05-19T13:57:19;9.60;;;6.30;;
50309;SDS011;36207;51.850;21.698;2023-05-19T13:59:45;12.20;;;6.50;;
50309;SDS011;36207;51.850;21.698;2023-05-19T14:02:11;13.20;;;6.00;;
50309;SDS011;36207;51.850;21.698;2023-05-19T14:04:37;9.90;;;6.30;;
50309;SDS011;36207;51.850;21.698;2023-05-19T14:07:07;13.10;;;6.50;;
50309;SDS011;36207;51.850;21.698;2023-05-19T14:09:34;15.80;;;6.40;;
50309;SDS011;36207;51.850;21.698;2023-05-19T14:12:01;16.90;;;6.70;;
50309;SDS011;36207;51.850;21.698;2023-05-19T14:14:27;13.10;;;6.70;;
50309;SDS011;36207;51.850;21.698;2023-05-19T14:16:56;13.20;;;6.90;;
50309;SDS011;36207;51.850;21.698;2023-05-19T14:19:22;11.60;;;6.70;;
50309;SDS011;36207;51.850;21.698;2023-05-19T14:21:49;14.20;;;7.70;;
50309;SDS011;36207;51.850;21.698;2023-05-19T14:24:15;17.70;;;7.70;;
50309;SDS011;36207;51.850;21.698;2023-05-19T14:26:42;13.90;;;6.40;;
50309;SDS011;36207;51.850;21.698;2023-05-19T14:29:07;10.10;;;6.50;;
50309;SDS011;36207;51.850;21.698;2023-05-19T14:31:33;14.40;;;7.00;;
50309;SDS011;36207;51.850;21.698;2023-05-19T14:33:59;11.90;;;7.00;;
50309;SDS011;36207;51.850;21.698;2023-05-19T14:36:25;11.70;;;6.60;;
50309;SDS011;36207;51.850;21.698;2023-05-19T14:38:51;11.70;;;7.10;;
50309;SDS011;36207;51.850;21.698;2023-05-19T14:41:21;14.40;;;7.10;;
50309;SDS011;36207;51.850;21.698;2023-05-19T14:43:47;11.50;;;6.40;;
50309;SDS011;36207;51.850;21.698;2023-05-19T14:46:13;13.70;;;7.30;;
50309;SDS011;36207;51.850;21.698;2023-05-19T14:48:39;14.50;;;6.90;;
50309;SDS011;36207;51.850;21.698;2023-05-19T14:51:05;14.90;;;7.90;;
50309;SDS011;36207;51.850;21.698;2023-05-19T14:53:31;18.20;;;7.70;;
50309;SDS011;36207;51.850;21.698;2023-05-19T14:55:57;15.80;;;7.50;;
50309;SDS011;36207;51.850;21.698;2023-05-19T14:58:23;14.90;;;7.50;;
50309;SDS011;36207;51.850;21.698;2023-05-19T15:00:48;15.40;;;8.10;;
50309;SDS011;36207;51.850;21.698;2023-05-19T15:03:14;16.50;;;7.20;;
50309;SDS011;36207;51.850;21.698;2023-05-19T15:05:40;18.20;;;7.70;;
50309;SDS011;36207;51.850;21.698;2023-05-19T15:08:06;18.60;;;7.70;;
50309;SDS011;36207;51.850;21.698;2023-05-19T15:10:32;16.90;;;7.80;;
50309;SDS011;36207;51.850;21.698;2023-05-19T15:12:58;17.40;;;7.80;;